Greyhound — DFRK2 — position and weather

sailwx.info

Track history (hours):
 
Tides and Currents Weather Stations Pressure Air Temp Water Temp Dewpoint Dewpoint Depression Visibility Wind Speed Wind Dir Waves Ship Positions

Greyhound

Last reported at 2019-Feb-20 14:38 UTC. Time now 2019-May-22 16:39 UTC.
Position N 09°13' W 079°55'.
Warning: this ship's position is months out of date.

Length 15 m.

Type: Sailing vessel. MMSI: 211430430.

Date/timePositionNaut miles runAvg speedWind from/ knotsBaromVisibWave heightAir tempDewpointWater temp
2019-Feb-20 14:38N 09°13' W 079°55'1 5.9
2019-Feb-20 14:30N 09°14' W 079°55'2 0.1
2019-Feb-19 22:39N 09°16' W 079°55'0 2.1
2019-Feb-19 22:28N 09°16' W 079°55'1 0.6
2019-Feb-19 21:09N 09°17' W 079°55'0 2.3
2019-Feb-19 20:59N 09°17' W 079°55'2 4.2
2019-Feb-19 20:30N 09°19' W 079°55'3 5.4
2019-Feb-19 20:00N 09°22' W 079°56'0 0.6
2019-Feb-19 19:30N 09°22' W 079°57'0 0.0
2019-Feb-19 19:00N 09°22' W 079°57'0 0.0
2019-Feb-19 18:30N 09°22' W 079°57'0 0.0
2019-Feb-18 17:27N 09°22' W 079°57'0 0.0
2019-Feb-18 16:54N 09°22' W 079°57'0 0.0
2019-Feb-18 16:21N 09°22' W 079°57'0 0.0
2019-Feb-18 16:00N 09°22' W 079°57'0 0.0
2019-Feb-18 15:30N 09°22' W 079°57'0 0.9
2019-Feb-18 15:00N 09°22' W 079°57'3 5.6
2019-Feb-18 14:30N 09°24' W 079°54'3 5.8
2019-Feb-18 14:00N 09°25' W 079°52'  
2019-Feb-11 17:06N 09°29' W 079°48'0 3.5
2019-Feb-11 16:59N 09°29' W 079°48'3 4.6
2019-Feb-11 16:21N 09°27' W 079°51'2 5.1
2019-Feb-11 16:00N 09°26' W 079°52'3 5.2
2019-Feb-11 15:30N 09°24' W 079°54'3 5.5
2019-Feb-11 15:00N 09°23' W 079°56'1 2.1
2019-Feb-11 14:30N 09°22' W 079°57'  
Track history (hours):
 
Tides and Currents Weather Stations Pressure Air Temp Water Temp Dewpoint Dewpoint Depression Visibility Wind Speed Wind Dir Waves Ship Positions

Greyhound

Last reported at 2019-Feb-20 14:38 UTC. Time now 2019-May-22 16:39 UTC.
Position N 09°13' W 079°55'.
Warning: this ship's position is months out of date.

Length 15 m.

Type: Sailing vessel. MMSI: 211430430.

Date/timePositionNaut miles runAvg speedWind from/ knotsBaromVisibWave heightAir tempDewpointWater temp
2019-Feb-20 14:38N 09°13' W 079°55'1 5.9
2019-Feb-20 14:30N 09°14' W 079°55'2 0.1
2019-Feb-19 22:39N 09°16' W 079°55'0 2.1
2019-Feb-19 22:28N 09°16' W 079°55'1 0.6
2019-Feb-19 21:09N 09°17' W 079°55'0 2.3
2019-Feb-19 20:59N 09°17' W 079°55'2 4.2
2019-Feb-19 20:30N 09°19' W 079°55'3 5.4
2019-Feb-19 20:00N 09°22' W 079°56'0 0.6
2019-Feb-19 19:30N 09°22' W 079°57'0 0.0
2019-Feb-19 19:00N 09°22' W 079°57'0 0.0
2019-Feb-19 18:30N 09°22' W 079°57'0 0.0
2019-Feb-18 17:27N 09°22' W 079°57'0 0.0
2019-Feb-18 16:54N 09°22' W 079°57'0 0.0
2019-Feb-18 16:21N 09°22' W 079°57'0 0.0
2019-Feb-18 16:00N 09°22' W 079°57'0 0.0
2019-Feb-18 15:30N 09°22' W 079°57'0 0.9
2019-Feb-18 15:00N 09°22' W 079°57'3 5.6
2019-Feb-18 14:30N 09°24' W 079°54'3 5.8
2019-Feb-18 14:00N 09°25' W 079°52'  
2019-Feb-11 17:06N 09°29' W 079°48'0 3.5
2019-Feb-11 16:59N 09°29' W 079°48'3 4.6
2019-Feb-11 16:21N 09°27' W 079°51'2 5.1
2019-Feb-11 16:00N 09°26' W 079°52'3 5.2
2019-Feb-11 15:30N 09°24' W 079°54'3 5.5
2019-Feb-11 15:00N 09°23' W 079°56'1 2.1
2019-Feb-11 14:30N 09°22' W 079°57'  

Dump ship's entire track history